Time;durP1;ratioP1;P1;durP2;ratioP2;P2;SDS_P1;SDS_P2;PMS_P1;PMS_P2;Temp;Humidity;BMP_temperature;BMP_pressure;BME280_temperature;BME280_humidity;BME280_pressure;Samples;Min_cycle;Max_cycle;Signal;HPM_P1;HPM_P2
2022/10/13 00:00:25;;;;;;;1999.90;999.90;;;;;;;9.09;100.00;94821.88;5056498;28;20219;-72
2022/10/13 00:02:50;;;;;;;1999.90;999.90;;;;;;;9.12;100.00;94825.72;5056602;28;20236;-66
2022/10/13 00:05:16;;;;;;;1999.90;999.90;;;;;;;9.06;100.00;94833.59;5056485;28;20250;-64
2022/10/13 00:07:41;;;;;;;1999.90;999.90;;;;;;;8.99;100.00;94817.31;5056591;28;20177;-64
2022/10/13 00:10:07;;;;;;;1999.90;999.90;;;;;;;8.95;100.00;94815.81;5056083;28;20181;-65
2022/10/13 00:12:36;;;;;;;1999.90;999.90;;;;;;;8.93;100.00;94821.66;5056118;28;20262;-65
2022/10/13 00:15:04;;;;;;;1999.90;999.90;;;;;;;8.97;100.00;94813.47;5056568;28;20189;-66
2022/10/13 00:17:29;;;;;;;1999.90;999.90;;;;;;;8.96;100.00;94799.06;5056406;28;20182;-65
2022/10/13 00:19:54;;;;;;;1999.90;999.90;;;;;;;8.95;100.00;94785.84;5055930;28;20235;-65
2022/10/13 00:22:20;;;;;;;1999.90;999.90;;;;;;;8.94;100.00;94778.88;5056370;28;20200;-69
2022/10/13 00:24:50;;;;;;;1999.90;999.90;;;;;;;8.91;100.00;94783.19;5056920;28;20187;-71
2022/10/13 00:27:15;;;;;;;1999.90;999.90;;;;;;;8.90;100.00;94789.03;5056568;28;20177;-71
2022/10/13 00:29:41;;;;;;;1999.90;999.90;;;;;;;8.89;100.00;94780.09;5055776;28;20181;-70
2022/10/13 00:32:06;;;;;;;1999.90;999.90;;;;;;;8.88;100.00;94784.00;5055705;28;20173;-70
2022/10/13 00:34:31;;;;;;;1999.90;999.90;;;;;;;8.90;100.00;94781.66;5056170;28;20272;-70
2022/10/13 00:36:57;;;;;;;1999.90;999.90;;;;;;;8.87;100.00;94782.47;5056499;28;20187;-65
2022/10/13 00:39:22;;;;;;;1999.90;999.90;;;;;;;8.86;100.00;94786.34;5055789;28;20181;-63
2022/10/13 00:41:47;;;;;;;1999.90;999.90;;;;;;;8.83;100.00;94778.22;5055358;28;20176;-72
2022/10/13 00:44:52;;;;;;;1999.90;999.90;;;;;;;8.80;100.00;94777.09;5055795;28;20179;-70
2022/10/13 00:47:18;;;;;;;1999.90;999.90;;;;;;;8.74;100.00;94770.53;5051406;28;20283;-70
2022/10/13 00:49:44;;;;;;;1999.90;999.90;;;;;;;8.73;100.00;94763.56;5055982;28;20273;-69
2022/10/13 00:52:10;;;;;;;1999.90;999.90;;;;;;;8.76;100.00;94764.69;5055926;28;20196;-69
2022/10/13 00:54:35;;;;;;;1999.90;999.90;;;;;;;8.73;100.00;94749.97;5056142;28;20209;-71
2022/10/13 00:57:02;;;;;;;1999.90;999.90;;;;;;;8.76;100.00;94749.16;5055076;28;20180;-71
2022/10/13 00:59:28;;;;;;;1999.90;999.90;;;;;;;8.73;100.00;94760.84;5055149;28;20174;-62
2022/10/13 01:01:57;;;;;;;1999.90;999.90;;;;;;;8.73;100.00;94749.19;5055435;28;20176;-62
2022/10/13 01:04:26;;;;;;;1999.90;999.90;;;;;;;8.76;100.00;94749.16;5054594;28;20226;-63
2022/10/13 01:06:53;;;;;;;1999.90;999.90;;;;;;;8.80;100.00;94735.47;5055184;28;20177;-62
2022/10/13 01:09:19;;;;;;;1999.90;999.90;;;;;;;8.75;100.00;94736.69;5054957;28;20182;-63
2022/10/13 01:11:51;;;;;;;1999.90;999.90;;;;;;;8.67;100.00;94731.78;5055119;28;20268;-62
2022/10/13 01:14:58;;;;;;;1999.90;999.90;;;;;;;8.68;100.00;94731.38;5054882;28;20177;-63
2022/10/13 01:17:47;;;;;;;1999.90;999.90;;;;;;;8.68;100.00;94734.09;5044944;28;20274;-73
2022/10/13 01:20:51;;;;;;;1999.90;999.90;;;;;;;8.71;100.00;94722.38;5054766;28;20214;-73
2022/10/13 01:23:37;;;;;;;1999.90;999.90;;;;;;;8.73;100.00;94724.69;5056019;28;20173;-73
2022/10/13 01:26:40;;;;;;;1999.90;999.90;;;;;;;8.72;100.00;94713.03;5054927;28;20173;-73
2022/10/13 01:29:15;;;;;;;1999.90;999.90;;;;;;;8.68;100.00;94717.75;5054508;28;20181;-75
2022/10/13 01:31:49;;;;;;;1999.90;999.90;;;;;;;8.69;100.00;94726.69;5054693;28;20247;-73
2022/10/13 01:34:29;;;;;;;1999.90;999.90;;;;;;;8.66;100.00;94722.81;5054458;28;20195;-63
2022/10/13 01:37:19;;;;;;;1999.90;999.90;;;;;;;8.63;100.00;94722.88;5055287;28;20173;-62
2022/10/13 01:40:05;;;;;;;1999.90;999.90;;;;;;;8.58;100.00;94721.38;5055183;28;20177;-63
2022/10/13 01:42:45;;;;;;;1999.90;999.90;;;;;;;8.52;100.00;94739.31;5054454;28;20169;-63
2022/10/13 01:45:19;;;;;;;1999.90;999.90;;;;;;;8.49;100.00;94731.94;5055074;28;20404;-63
2022/10/13 01:47:45;;;;;;;1999.90;999.90;;;;;;;8.47;100.00;94736.25;5055059;28;20169;-63
2022/10/13 01:50:14;;;;;;;1999.90;999.90;;;;;;;8.44;100.00;94737.06;5054366;28;20185;-63
2022/10/13 01:52:41;;;;;;;1999.90;999.90;;;;;;;8.42;100.00;94745.63;5055550;28;20216;-65
2022/10/13 01:55:09;;;;;;;1999.90;999.90;;;;;;;8.39;100.00;94741.03;5054306;28;20180;-64
2022/10/13 01:57:38;;;;;;;1999.90;999.90;;;;;;;8.38;100.00;94744.91;5054118;28;20215;-63
2022/10/13 02:00:15;;;;;;;1999.90;999.90;;;;;;;8.36;100.00;94743.75;5054240;28;20185;-63
2022/10/13 02:03:38;;;;;;;1999.90;999.90;;;;;;;8.36;100.00;94741.81;5054931;28;20191;-62
2022/10/13 02:06:33;;;;;;;1999.90;999.90;;;;;;;8.34;100.00;94743.41;5036502;28;20237;-63
2022/10/13 02:09:09;;;;;;;1999.90;999.90;;;;;;;8.27;100.00;94749.69;5034991;28;20221;-63
2022/10/13 02:11:37;;;;;;;1999.90;999.90;;;;;;;8.23;100.00;94759.06;5048282;28;20185;-62
2022/10/13 02:14:11;;;;;;;1999.90;999.90;;;;;;;8.22;100.00;94747.41;5053643;28;20247;-71
2022/10/13 02:16:43;;;;;;;1999.90;999.90;;;;;;;8.21;100.00;94751.31;5053466;28;20180;-70
2022/10/13 02:19:13;;;;;;;1999.90;999.90;;;;;;;8.24;100.00;94750.50;5054085;28;20194;-71
2022/10/13 02:21:40;;;;;;;1999.90;999.90;;;;;;;8.21;100.00;94762.19;5054210;28;20176;-70
2022/10/13 02:24:06;;;;;;;1999.90;999.90;;;;;;;8.13;100.00;94766.13;5054329;28;20179;-71
2022/10/13 02:26:33;;;;;;;1999.90;999.90;;;;;;;8.15;100.00;94763.75;5054442;28;20182;-69
2022/10/13 02:29:06;;;;;;;1999.90;999.90;;;;;;;8.19;100.00;94761.03;5053830;28;20203;-68
2022/10/13 02:31:31;;;;;;;1999.90;999.90;;;;;;;8.18;100.00;94762.16;5053676;28;20177;-71
2022/10/13 02:33:57;;;;;;;1999.90;999.90;;;;;;;8.12;100.00;94766.53;5053738;28;20216;-71
2022/10/13 02:36:22;;;;;;;1999.90;999.90;;;;;;;8.12;100.00;94761.84;5054415;28;20180;-70
2022/10/13 02:38:48;;;;;;;1999.90;999.90;;;;;;;8.07;100.00;94762.28;5054251;28;20174;-72
2022/10/13 02:41:13;;;;;;;1999.90;999.90;;;;;;;8.03;100.00;94772.41;5054279;28;20210;-73
2022/10/13 02:43:38;;;;;;;1999.90;999.90;;;;;;;8.09;100.00;94759.91;5054154;28;20210;-72
2022/10/13 02:46:04;;;;;;;1999.90;999.90;;;;;;;8.08;100.00;94758.38;5053568;28;20217;-65
2022/10/13 02:48:29;;;;;;;1999.90;999.90;;;;;;;8.10;100.00;94766.91;5053510;28;20177;-62
2022/10/13 02:50:55;;;;;;;1999.90;999.90;;;;;;;8.10;100.00;94761.47;5053231;28;20245;-65
2022/10/13 02:53:20;;;;;;;1999.90;999.90;;;;;;;8.10;100.00;94764.19;5053329;28;20201;-65
2022/10/13 02:55:47;;;;;;;1999.90;999.90;;;;;;;8.09;100.00;94759.16;5053438;28;20182;-66
2022/10/13 02:58:12;;;;;;;1999.90;999.90;;;;;;;8.11;100.00;94759.50;5054157;28;20175;-66
2022/10/13 03:00:38;;;;;;;1999.90;999.90;;;;;;;8.11;100.00;94756.81;5053905;28;20176;-65
2022/10/13 03:03:04;;;;;;;1999.90;999.90;;;;;;;8.12;100.00;94763.81;5053558;28;20239;-66
2022/10/13 03:05:30;;;;;;;1999.90;999.90;;;;;;;8.06;100.00;94766.19;5053451;28;20195;-63
2022/10/13 03:07:55;;;;;;;1999.90;999.90;;;;;;;8.06;100.00;94765.41;5053456;28;20175;-63
2022/10/13 03:10:21;;;;;;;1999.90;999.90;;;;;;;8.04;100.00;94768.53;5052918;28;20183;-63
2022/10/13 03:12:46;;;;;;;1999.90;999.90;;;;;;;8.04;100.00;94757.66;5052804;28;20210;-63
2022/10/13 03:15:12;;;;;;;1999.90;999.90;;;;;;;8.02;100.00;94753.78;5053246;28;20169;-63
2022/10/13 03:17:37;;;;;;;1999.90;999.90;;;;;;;7.97;100.00;94746.81;5053671;28;20181;-63
2022/10/13 03:20:03;;;;;;;1999.90;999.90;;;;;;;7.96;100.00;94750.72;5052980;28;20231;-63
2022/10/13 03:22:31;;;;;;;1999.90;999.90;;;;;;;7.96;100.00;94749.94;5053751;28;20258;-63
2022/10/13 03:24:56;;;;;;;1999.90;999.90;;;;;;;7.91;100.00;94743.03;5053397;28;20199;-72
2022/10/13 03:27:21;;;;;;;1999.90;999.90;;;;;;;7.88;100.00;94743.03;5054250;28;20167;-65
2022/10/13 03:29:47;;;;;;;1999.90;999.90;;;;;;;7.87;100.00;94741.50;5057010;28;20188;-64
2022/10/13 03:32:15;;;;;;;1999.90;999.90;;;;;;;7.86;100.00;94748.13;5056975;28;20183;-64
2022/10/13 03:34:41;;;;;;;1999.90;999.90;;;;;;;7.83;100.00;94746.19;5056995;28;20234;-64
2022/10/13 03:37:07;;;;;;;1999.90;999.90;;;;;;;7.81;100.00;94749.31;5057330;28;20169;-65
2022/10/13 03:39:32;;;;;;;1999.90;999.90;;;;;;;7.79;100.00;94740.78;5056955;28;20205;-65
2022/10/13 03:41:57;;;;;;;1999.90;999.90;;;;;;;7.76;100.00;94743.53;5056747;28;20255;-65
2022/10/13 03:44:23;;;;;;;1999.90;999.90;;;;;;;7.75;100.00;94745.47;5057319;28;20230;-71
2022/10/13 03:46:48;;;;;;;1999.90;999.90;;;;;;;7.73;100.00;94749.75;5056729;28;20179;-70
2022/10/13 03:49:14;;;;;;;1999.90;999.90;;;;;;;7.73;100.00;94747.81;5056790;28;20175;-70
2022/10/13 03:51:39;;;;;;;1999.90;999.90;;;;;;;7.72;100.00;94756.38;5057276;28;20270;-70
2022/10/13 03:54:05;;;;;;;1999.90;999.90;;;;;;;7.70;100.00;94754.06;5056657;28;20296;-71
2022/10/13 03:56:30;;;;;;;1999.90;999.90;;;;;;;7.67;100.00;94763.00;5056588;28;20184;-69
2022/10/13 03:58:57;;;;;;;1999.90;999.90;;;;;;;7.62;100.00;94760.72;5056465;28;20184;-72
2022/10/13 04:01:26;;;;;;;1999.90;999.90;;;;;;;7.62;100.00;94763.44;5057255;28;20217;-71
2022/10/13 04:03:53;;;;;;;1999.90;999.90;;;;;;;7.63;100.00;94758.75;5056084;28;20200;-63
2022/10/13 04:06:19;;;;;;;1999.90;999.90;;;;;;;7.65;100.00;94768.06;5056051;28;20184;-63
2022/10/13 04:08:44;;;;;;;1999.90;999.90;;;;;;;7.70;100.00;94769.56;5055944;28;20184;-63
2022/10/13 04:11:12;;;;;;;1999.90;999.90;;;;;;;7.75;100.00;94767.22;5057048;28;20241;-64
2022/10/13 04:13:37;;;;;;;1999.90;999.90;;;;;;;7.79;100.00;94767.94;5056647;28;20208;-63
2022/10/13 04:16:18;;;;;;;1999.90;999.90;;;;;;;7.83;100.00;94765.97;5056404;28;20255;-63
2022/10/13 04:18:48;;;;;;;1999.90;999.90;;;;;;;7.87;100.00;94768.69;5055841;28;20211;-70
2022/10/13 04:21:14;;;;;;;1999.90;999.90;;;;;;;7.92;100.00;94760.88;5056101;28;20227;-67
2022/10/13 04:23:40;;;;;;;1999.90;999.90;;;;;;;7.98;100.00;94753.06;5056611;28;20185;-66
2022/10/13 04:26:05;;;;;;;1999.90;999.90;;;;;;;8.03;100.00;94760.75;5056273;28;20176;-65
2022/10/13 04:28:34;;;;;;;1999.90;999.90;;;;;;;8.08;100.00;94755.66;5055994;28;20178;-66
2022/10/13 04:31:03;;;;;;;1999.90;999.90;;;;;;;8.07;100.00;94751.41;5057096;28;20174;-67
2022/10/13 04:33:28;;;;;;;1999.90;999.90;;;;;;;8.12;100.00;94742.06;5056266;28;20216;-66
2022/10/13 04:35:54;;;;;;;1999.90;999.90;;;;;;;8.13;100.00;94743.59;5056635;28;20180;-66
2022/10/13 04:38:19;;;;;;;1999.90;999.90;;;;;;;8.11;100.00;94741.25;5074839;28;20218;-64
2022/10/13 04:40:44;;;;;;;1999.90;999.90;;;;;;;8.12;100.00;94737.38;5057711;28;20190;-63
2022/10/13 04:43:10;;;;;;;1999.90;999.90;;;;;;;8.15;100.00;94720.25;5074848;28;20185;-64
2022/10/13 04:45:35;;;;;;;1999.90;999.90;;;;;;;8.15;100.00;94714.81;5058300;28;20297;-63
2022/10/13 04:48:01;;;;;;;1999.90;999.90;;;;;;;8.14;100.00;94710.56;5058406;28;20276;-64
2022/10/13 04:50:26;;;;;;;1999.90;999.90;;;;;;;8.15;100.00;94714.03;5058422;28;20219;-64
2022/10/13 04:52:51;;;;;;;1999.90;999.90;;;;;;;8.15;100.00;94714.03;5074605;28;20220;-63
2022/10/13 04:55:17;;;;;;;1999.90;999.90;;;;;;;8.17;100.00;94720.63;5074669;28;20235;-62
2022/10/13 04:57:42;;;;;;;1999.90;999.90;;;;;;;8.19;100.00;94710.09;5057690;28;20181;-70
2022/10/13 05:00:08;;;;;;;1999.90;999.90;;;;;;;8.22;100.00;94703.88;5075156;28;20203;-67
2022/10/13 05:02:34;;;;;;;1999.90;999.90;;;;;;;8.24;100.00;94698.84;5057908;28;20177;-65
2022/10/13 05:05:00;;;;;;;1999.90;999.90;;;;;;;8.29;100.00;94694.88;5057719;28;20215;-66
2022/10/13 05:07:25;;;;;;;1999.90;999.90;;;;;;;8.34;100.00;94689.75;5057935;28;20176;-64
2022/10/13 05:09:51;;;;;;;1999.90;999.90;;;;;;;8.40;100.00;94671.03;5054897;28;20214;-65
2022/10/13 05:12:16;;;;;;;1999.90;999.90;;;;;;;8.45;100.00;94673.34;5054646;28;20176;-63
2022/10/13 05:14:41;;;;;;;1999.90;999.90;;;;;;;8.48;100.00;94667.84;5055436;28;20319;-69
2022/10/13 05:17:07;;;;;;;1999.90;999.90;;;;;;;8.52;100.00;94668.56;5054861;28;20219;-64
2022/10/13 05:19:32;;;;;;;1999.90;999.90;;;;;;;8.55;100.00;94666.97;5054478;28;20224;-64
2022/10/13 05:21:57;;;;;;;1999.90;999.90;;;;;;;8.61;100.00;94660.69;5054690;28;20199;-63
2022/10/13 05:24:35;;;;;;;1999.90;999.90;;;;;;;8.67;100.00;94653.59;5055358;28;20263;-64
2022/10/13 05:27:01;;;;;;;1999.90;999.90;;;;;;;8.75;100.00;94646.88;5055625;28;20205;-64
2022/10/13 05:29:26;;;;;;;1999.90;999.90;;;;;;;8.80;100.00;94651.88;5054379;28;20208;-63
2022/10/13 05:31:51;;;;;;;1999.90;999.90;;;;;;;8.88;100.00;94642.44;5054288;28;20177;-65
2022/10/13 05:34:17;;;;;;;1999.90;999.90;;;;;;;8.91;100.00;94641.63;5054471;28;20232;-69
2022/10/13 05:36:42;;;;;;;1999.90;999.90;;;;;;;8.94;100.00;94629.91;5054208;28;20169;-64
2022/10/13 05:39:08;;;;;;;1999.90;999.90;;;;;;;9.01;100.00;94632.53;5054564;28;20174;-64
2022/10/13 05:41:34;;;;;;;1999.90;999.90;;;;;;;9.02;100.00;94630.56;5054238;28;20178;-64
2022/10/13 05:44:02;;;;;;;1999.90;999.90;;;;;;;9.08;100.00;94626.19;5054077;28;20185;-66
2022/10/13 05:46:27;;;;;;;1999.90;999.90;;;;;;;9.15;100.00;94626.84;5054059;28;20178;-65
2022/10/13 05:48:56;;;;;;;1999.90;999.90;;;;;;;9.19;100.00;94630.31;5054402;28;20174;-64
2022/10/13 05:51:30;;;;;;;1999.90;999.90;;;;;;;9.25;100.00;94617.00;5055278;28;20198;-65
2022/10/13 05:54:07;;;;;;;1999.90;999.90;;;;;;;9.26;100.00;94611.09;5054237;28;20201;-63
2022/10/13 05:56:39;;;;;;;1999.90;999.90;;;;;;;9.28;100.00;94613.41;5053730;28;20169;-62
2022/10/13 05:59:09;;;;;;;1999.90;999.90;;;;;;;9.36;100.00;94607.44;5053934;28;20201;-64
2022/10/13 06:01:38;;;;;;;1999.90;999.90;;;;;;;9.44;100.00;94603.41;5054434;28;20178;-63
2022/10/13 06:04:11;;;;;;;1999.90;999.90;;;;;;;9.50;100.00;94604.50;5053788;28;20209;-63
2022/10/13 06:06:39;;;;;;;1999.90;999.90;;;;;;;9.57;100.00;94598.91;5054389;28;20206;-62
2022/10/13 06:09:05;;;;;;;1999.90;999.90;;;;;;;9.72;100.00;94597.47;5053735;28;20181;-62
2022/10/13 06:11:30;;;;;;;1999.90;999.90;;;;;;;9.80;100.00;94593.44;5053936;28;20174;-67
2022/10/13 06:13:56;;;;;;;1999.90;999.90;;;;;;;9.86;100.00;94586.31;5053842;28;20284;-69
2022/10/13 06:16:21;;;;;;;1999.90;999.90;;;;;;;9.92;100.00;94579.19;5054236;28;20213;-72
2022/10/13 06:18:46;;;;;;;1999.90;999.90;;;;;;;10.06;100.00;94578.19;5053494;28;20174;-71
2022/10/13 06:21:12;;;;;;;1999.90;999.90;;;;;;;10.12;100.00;94570.28;5053727;28;20222;-72
2022/10/13 06:23:37;;;;;;;1999.90;999.90;;;;;;;10.24;100.00;94564.97;5053732;28;20190;-70
2022/10/13 06:26:05;;;;;;;1999.90;999.90;;;;;;;10.34;100.00;94571.41;5054201;28;20173;-68
2022/10/13 06:28:30;;;;;;;1999.90;999.90;;;;;;;10.40;100.00;94572.41;5053786;28;20214;-65
2022/10/13 06:30:56;;;;;;;1999.90;999.90;;;;;;;10.48;100.00;94566.41;5053478;28;20180;-66
2022/10/13 06:33:23;;;;;;;1999.90;999.90;;;;;;;10.54;100.00;94566.66;5053092;28;20204;-66
2022/10/13 06:35:52;;;;;;;1999.90;999.90;;;;;;;10.67;100.00;94568.31;5053265;28;20189;-66
2022/10/13 06:38:18;;;;;;;1999.90;999.90;;;;;;;10.75;100.00;94558.78;5053607;28;20268;-66
2022/10/13 06:40:44;;;;;;;1999.90;999.90;;;;;;;10.84;100.00;94569.09;5053202;28;20201;-66
2022/10/13 06:43:09;;;;;;;1999.90;999.90;;;;;;;10.92;100.00;94567.78;5053542;28;20178;-67
2022/10/13 06:45:35;;;;;;;1999.90;999.90;;;;;;;11.00;100.00;94563.69;5053485;28;20174;-64
2022/10/13 06:48:00;;;;;;;1999.90;999.90;;;;;;;11.08;100.00;94559.59;5054160;28;20202;-70
2022/10/13 06:50:26;;;;;;;1999.90;999.90;;;;;;;11.14;100.00;94557.88;5053331;28;20196;-62
2022/10/13 06:52:51;;;;;;;1999.90;999.90;;;;;;;11.22;100.00;94568.19;5053356;28;20203;-63
2022/10/13 06:55:17;;;;;;;1999.90;999.90;;;;;;;11.25;100.00;94572.06;5054049;28;20174;-63
2022/10/13 06:57:42;;;;;;;1999.90;999.90;;;;;;;11.32;100.00;94569.13;5053033;28;20186;-63
2022/10/13 07:00:09;;;;;;;1999.90;999.90;;;;;;;11.35;100.00;94573.75;5053526;28;20172;-63
2022/10/13 07:02:34;;;;;;;1999.90;999.90;;;;;;;11.43;100.00;94581.34;5054862;28;20221;-63
2022/10/13 07:04:59;;;;;;;1999.90;999.90;;;;;;;11.50;100.00;94585.88;5058294;28;20221;-65
2022/10/13 07:07:25;;;;;;;1999.90;999.90;;;;;;;11.56;100.00;94586.91;5057528;28;20177;-72
2022/10/13 07:09:50;;;;;;;1999.90;999.90;;;;;;;11.64;100.00;94585.53;5057403;28;20253;-72
2022/10/13 07:12:16;;;;;;;1999.90;999.90;;;;;;;11.72;100.00;94586.91;5059762;28;20188;-74
2022/10/13 07:14:42;;;;;;;1999.90;999.90;;;;;;;11.78;100.00;94601.59;5060056;28;20189;-71
2022/10/13 07:17:07;;;;;;;1999.90;999.90;;;;;;;11.84;100.00;94605.38;5076375;28;20187;-75
2022/10/13 07:19:33;;;;;;;1999.90;999.90;;;;;;;11.87;100.00;94609.97;5059945;28;20234;-71
2022/10/13 07:22:00;;;;;;;1999.90;999.90;;;;;;;11.95;100.00;94611.34;5059610;28;20184;-65
2022/10/13 07:24:26;;;;;;;1999.90;999.90;;;;;;;11.95;100.00;94620.28;5076787;28;20191;-70
2022/10/13 07:26:51;;;;;;;1999.90;999.90;;;;;;;12.04;100.00;94625.16;5076636;28;20191;-66
2022/10/13 07:29:17;;;;;;;1999.90;999.90;;;;;;;12.12;100.00;94627.28;5076431;28;20180;-66
2022/10/13 07:31:44;;;;;;;1999.90;999.90;;;;;;;12.17;100.00;94629.47;5076275;28;20208;-66
2022/10/13 07:34:10;;;;;;;1999.90;999.90;;;;;;;12.21;100.00;94634.88;5075842;28;20211;-66
2022/10/13 07:36:37;;;;;;;1999.90;999.90;;;;;;;12.23;100.00;94627.75;5059284;28;20241;-65
2022/10/13 07:39:02;;;;;;;1999.90;999.90;;;;;;;12.23;100.00;94633.22;5059087;28;20275;-66
2022/10/13 07:41:28;;;;;;;1999.90;999.90;;;;;;;12.30;100.00;94632.25;5059254;28;20265;-63
2022/10/13 07:43:57;;;;;;;1999.90;999.90;;;;;;;12.36;100.00;94641.50;5061108;28;20187;-62
2022/10/13 07:46:22;;;;;;;1999.90;999.90;;;;;;;12.42;100.00;94642.50;5056984;28;20177;-62
2022/10/13 07:48:48;;;;;;;1999.90;999.90;;;;;;;12.52;100.00;94646.91;5057252;28;20184;-62
2022/10/13 07:51:22;;;;;;;1999.90;999.90;;;;;;;12.59;100.00;94642.00;5056404;28;20278;-62
2022/10/13 07:53:48;;;;;;;1999.90;999.90;;;;;;;12.70;100.00;94644.44;5056463;28;20208;-62
2022/10/13 07:56:15;;;;;;;1999.90;999.90;;;;;;;12.71;100.00;94643.22;5056649;28;20176;-62
2022/10/13 07:58:43;;;;;;;1999.90;999.90;;;;;;;12.80;100.00;94643.38;5056938;28;20201;-71
2022/10/13 08:01:08;;;;;;;1999.90;999.90;;;;;;;12.80;100.00;94643.38;5057154;28;20178;-67
2022/10/13 08:03:34;;;;;;;1999.90;999.90;;;;;;;12.94;100.00;94642.97;5056384;28;20206;-65
2022/10/13 08:06:05;;;;;;;1999.90;999.90;;;;;;;13.07;100.00;94646.50;5056912;28;20204;-64
2022/10/13 08:08:31;;;;;;;1999.90;999.90;;;;;;;13.21;100.00;94646.09;5056922;28;20181;-64
2022/10/13 08:11:10;;;;;;;1999.90;999.90;;;;;;;13.22;100.00;94651.13;5056344;28;20244;-64
2022/10/13 08:13:35;;;;;;;1999.90;999.90;;;;;;;13.34;100.00;94646.88;5056725;28;20212;-64
2022/10/13 08:16:01;;;;;;;1999.90;999.90;;;;;;;13.38;100.00;94644.00;5056292;28;20174;-63
2022/10/13 08:18:28;;;;;;;1999.90;999.90;;;;;;;13.46;100.00;94651.56;5056117;28;20188;-64
2022/10/13 08:20:54;;;;;;;1999.90;999.90;;;;;;;13.56;100.00;94650.47;5055850;28;20301;-63
2022/10/13 08:23:19;;;;;;;1999.90;999.90;;;;;;;13.66;100.00;94643.88;5055773;28;20224;-63
2022/10/13 08:25:45;;;;;;;1999.90;999.90;;;;;;;13.66;100.00;94662.31;5055889;28;20180;-63
2022/10/13 08:28:19;;;;;;;1999.90;999.90;;;;;;;13.68;100.00;94665.38;5056009;28;20170;-63
2022/10/13 08:30:45;;;;;;;1999.90;999.90;;;;;;;13.81;100.00;94671.63;5055841;28;20178;-63
2022/10/13 08:33:11;;;;;;;1999.90;999.90;;;;;;;13.92;100.00;94680.28;5055537;28;20218;-64
2022/10/13 08:35:37;;;;;;;1999.90;999.90;;;;;;;13.85;100.00;94692.28;5055706;28;20184;-64
2022/10/13 08:38:02;;;;;;;1999.90;999.90;;;;;;;13.92;100.00;94694.81;5056562;28;20194;-67
2022/10/13 08:40:31;;;;;;;1999.90;999.90;;;;;;;13.95;100.00;94709.63;5055395;28;20240;-66
2022/10/13 08:42:56;;;;;;;1999.90;999.90;;;;;;;13.93;100.00;94715.53;5055722;28;20178;-66
2022/10/13 08:45:26;;;;;;;1999.90;999.90;;;;;;;13.94;100.00;94703.34;5055618;28;20178;-66
2022/10/13 08:47:58;;;;;;;1999.90;999.90;;;;;;;13.92;100.00;94705.78;5055302;28;20185;-67
2022/10/13 08:50:28;;;;;;;1999.90;999.90;;;;;;;14.01;100.00;94702.34;5056096;28;20169;-66
2022/10/13 08:53:03;;;;;;;1999.90;999.90;;;;;;;14.17;100.00;94702.97;5075028;28;20242;-66
2022/10/13 08:55:39;;;;;;;1999.90;999.90;;;;;;;14.21;100.00;94703.66;5074768;28;20192;-63
2022/10/13 08:58:32;;;;;;;1999.90;999.90;;;;;;;14.48;100.00;94695.66;5075026;28;20189;-71
2022/10/13 09:01:12;;;;;;;1999.90;999.90;;;;;;;14.70;100.00;94688.22;5056061;28;20280;-70
2022/10/13 09:03:55;;;;;;;1999.90;999.90;;;;;;;15.05;100.00;94691.69;5074991;28;20208;-69
2022/10/13 09:06:31;;;;;;;1999.90;999.90;;;;;;;15.30;100.00;94694.28;5074196;28;20177;-70
2022/10/13 09:09:01;;;;;;;1999.90;999.90;;;;;;;15.38;100.00;94704.59;5074528;28;20185;-70
2022/10/13 09:11:39;;;;;;;1999.90;999.90;;;;;;;15.78;100.00;94710.88;5058075;28;20180;-71
2022/10/13 09:14:26;;;;;;;1999.90;999.90;;;;;;;16.11;100.00;94700.88;5074367;28;20307;-63
2022/10/13 09:16:53;;;;;;;1999.90;999.90;;;;;;;16.42;100.00;94705.59;5074768;28;20165;-69
2022/10/13 09:19:18;;;;;;;1999.90;999.90;;;;;;;16.83;100.00;94707.75;5057124;28;20193;-69
2022/10/13 09:21:44;;;;;;;1999.90;999.90;;;;;;;17.15;100.00;94698.84;5074344;28;20182;-69
2022/10/13 09:24:16;;;;;;;1999.90;999.90;;;;;;;17.62;100.00;94680.50;5062530;28;20205;-71
2022/10/13 09:26:43;;;;;;;1999.90;999.90;;;;;;;18.35;100.00;94673.41;5055422;28;20204;-68
2022/10/13 09:29:25;;;;;;;1999.90;999.90;;;;;;;19.66;100.00;94645.94;5055096;28;20204;-72
2022/10/13 09:32:06;;;;;;;1999.90;999.90;;;;;;;19.99;100.00;94651.97;5054777;28;20170;-62
2022/10/13 09:34:31;;;;;;;1999.90;999.90;;;;;;;20.02;100.00;94645.47;5054574;28;20292;-64
2022/10/13 09:37:02;;;;;;;1999.90;999.90;;;;;;;19.75;100.00;94656.91;5055029;28;20220;-63
2022/10/13 09:39:29;;;;;;;1999.90;999.90;;;;;;;19.58;100.00;94677.28;5055250;28;20269;-63
2022/10/13 09:42:16;;;;;;;1999.90;999.90;;;;;;;18.99;100.00;94687.53;5054597;28;20205;-63
2022/10/13 09:44:42;;;;;;;1999.90;999.90;;;;;;;18.58;100.00;94702.31;5054481;28;20178;-64
2022/10/13 09:47:19;;;;;;;1999.90;999.90;;;;;;;18.86;100.00;94698.06;5054461;28;20185;-63
2022/10/13 09:49:45;;;;;;;1999.90;999.90;;;;;;;18.65;100.00;94715.78;5054966;28;20173;-68
2022/10/13 09:52:20;;;;;;;1999.90;999.90;;;;;;;18.69;100.00;94714.34;5054094;28;20242;-61
2022/10/13 09:54:48;;;;;;;1999.90;999.90;;;;;;;18.76;100.00;94708.44;5053920;28;20185;-63
2022/10/13 09:57:29;;;;;;;1999.90;999.90;;;;;;;18.45;100.00;94721.13;5053925;28;20170;-64
2022/10/13 10:00:13;;;;;;;1999.90;999.90;;;;;;;18.41;100.00;94720.53;5054618;28;20170;-62
2022/10/13 10:02:57;;;;;;;1999.90;999.90;;;;;;;18.39;100.00;94725.78;5054758;28;20225;-63
2022/10/13 10:05:43;;;;;;;1999.90;999.90;;;;;;;18.05;100.00;94734.50;5054258;28;20201;-65
2022/10/13 10:08:17;;;;;;;1999.90;999.90;;;;;;;18.03;100.00;94746.03;5053813;28;20223;-68
2022/10/13 10:10:43;;;;;;;1999.90;999.90;;;;;;;17.75;100.00;94754.88;5054089;28;20188;-76
2022/10/13 10:13:11;;;;;;;1999.90;999.90;;;;;;;17.68;100.00;94757.97;5053707;28;20237;-77
2022/10/13 10:15:51;;;;;;;1999.90;999.90;;;;;;;17.93;100.00;94747.31;5054134;28;20178;-73
2022/10/13 10:18:29;;;;;;;1999.90;999.90;;;;;;;17.91;100.00;94748.97;5053790;28;20216;-75
2022/10/13 10:21:02;;;;;;;1999.90;999.90;;;;;;;17.77;100.00;94766.25;5054333;28;20277;-74
2022/10/13 10:24:12;;;;;;;1999.90;999.90;;;;;;;17.77;100.00;94766.25;5055349;28;20239;-75
2022/10/13 10:26:56;;;;;;;1999.90;999.90;;;;;;;17.31;100.00;94778.56;5053125;28;20193;-62
2022/10/13 10:29:36;;;;;;;1999.90;999.90;;;;;;;17.30;100.00;94786.06;5053541;28;20174;-65
2022/10/13 10:32:31;;;;;;;1999.90;999.90;;;;;;;17.29;100.00;94781.00;5053590;28;20182;-64
2022/10/13 10:35:10;;;;;;;1999.90;999.90;;;;;;;17.21;100.00;94779.78;5054047;28;20182;-63
2022/10/13 10:37:57;;;;;;;1999.90;999.90;;;;;;;17.19;100.00;94787.75;5053311;28;20212;-64
2022/10/13 10:40:38;;;;;;;1999.90;999.90;;;;;;;17.20;100.00;94778.25;5054522;28;20182;-64
2022/10/13 10:43:28;;;;;;;1999.90;999.90;;;;;;;17.21;100.00;94779.78;5053467;28;20185;-63
2022/10/13 10:45:56;;;;;;;1999.90;999.90;;;;;;;17.34;100.00;94772.13;5053896;28;20308;-64
2022/10/13 10:48:31;;;;;;;1999.90;999.90;;;;;;;17.48;100.00;94766.75;5053392;28;20213;-65
2022/10/13 10:50:56;;;;;;;1999.90;999.90;;;;;;;17.56;100.00;94767.22;5053397;28;20204;-65
2022/10/13 10:53:29;;;;;;;1999.90;999.90;;;;;;;17.69;100.00;94762.25;5053263;28;20263;-65
2022/10/13 10:56:22;;;;;;;1999.90;999.90;;;;;;;17.82;100.00;94762.84;5053957;28;20211;-65
2022/10/13 10:59:00;;;;;;;1999.90;999.90;;;;;;;17.98;100.00;94738.38;5050920;28;20267;-63
2022/10/13 11:01:45;;;;;;;1999.90;999.90;;;;;;;18.30;100.00;94743.16;5053849;28;20204;-65
2022/10/13 11:04:29;;;;;;;1999.90;999.90;;;;;;;18.52;100.00;94745.66;5053522;28;20197;-68